sensor_id;sensor_type;location;lat;lon;timestamp;pressure;altitude;pressure_sealevel;temperature;humidity
64298;BME280;50639;53.270;7.956;2023-04-28T00:02:00;101798.19;;;4.19;77.36
64298;BME280;50639;53.270;7.956;2023-04-28T00:04:26;101802.41;;;4.22;77.12
64298;BME280;50639;53.270;7.956;2023-04-28T00:06:52;101801.16;;;4.26;76.26
64298;BME280;50639;53.270;7.956;2023-04-28T00:09:17;101796.72;;;4.26;76.60
64298;BME280;50639;53.270;7.956;2023-04-28T00:11:44;101791.44;;;4.15;79.06
64298;BME280;50639;53.270;7.956;2023-04-28T00:14:10;101790.25;;;4.19;77.42
64298;BME280;50639;53.270;7.956;2023-04-28T00:16:35;101786.66;;;4.20;77.31
64298;BME280;50639;53.270;7.956;2023-04-28T00:19:01;101789.16;;;4.22;77.14
64298;BME280;50639;53.270;7.956;2023-04-28T00:21:26;101792.16;;;4.17;77.34
64298;BME280;50639;53.270;7.956;2023-04-28T00:23:53;101788.56;;;4.18;77.56
64298;BME280;50639;53.270;7.956;2023-04-28T00:26:18;101781.47;;;4.19;77.18
64298;BME280;50639;53.270;7.956;2023-04-28T00:28:44;101781.84;;;4.14;77.14
64298;BME280;50639;53.270;7.956;2023-04-28T00:31:13;101773.22;;;4.12;77.26
64298;BME280;50639;53.270;7.956;2023-04-28T00:33:40;101773.25;;;4.01;78.68
64298;BME280;50639;53.270;7.956;2023-04-28T00:36:06;101778.13;;;4.05;77.83
64298;BME280;50639;53.270;7.956;2023-04-28T00:38:32;101768.69;;;4.03;77.86
64298;BME280;50639;53.270;7.956;2023-04-28T00:40:58;101767.72;;;4.04;77.31
64298;BME280;50639;53.270;7.956;2023-04-28T00:43:23;101762.91;;;3.98;77.19
64298;BME280;50639;53.270;7.956;2023-04-28T00:45:49;101761.09;;;3.98;77.74
64298;BME280;50639;53.270;7.956;2023-04-28T00:48:16;101756.66;;;3.99;77.12
64298;BME280;50639;53.270;7.956;2023-04-28T00:50:43;101742.06;;;3.84;79.04
64298;BME280;50639;53.270;7.956;2023-04-28T00:53:09;101740.13;;;3.86;78.54
64298;BME280;50639;53.270;7.956;2023-04-28T00:55:36;101734.56;;;3.89;78.00
64298;BME280;50639;53.270;7.956;2023-04-28T00:58:01;101730.41;;;3.86;78.53
64298;BME280;50639;53.270;7.956;2023-04-28T01:00:27;101736.53;;;3.87;78.19
64298;BME280;50639;53.270;7.956;2023-04-28T01:02:54;101733.50;;;3.91;77.97
64298;BME280;50639;53.270;7.956;2023-04-28T01:05:20;101736.38;;;3.88;78.35
64298;BME280;50639;53.270;7.956;2023-04-28T01:07:47;101729.28;;;3.89;77.91
64298;BME280;50639;53.270;7.956;2023-04-28T01:10:13;101722.94;;;3.91;77.43
64298;BME280;50639;53.270;7.956;2023-04-28T01:12:38;101727.38;;;3.91;78.43
64298;BME280;50639;53.270;7.956;2023-04-28T01:15:05;101722.09;;;3.91;77.87
64298;BME280;50639;53.270;7.956;2023-04-28T01:17:32;101721.13;;;3.92;78.33
64298;BME280;50639;53.270;7.956;2023-04-28T01:19:59;101721.97;;;3.92;78.26
64298;BME280;50639;53.270;7.956;2023-04-28T01:22:24;101714.03;;;3.92;78.11
64298;BME280;50639;53.270;7.956;2023-04-28T01:24:50;101711.41;;;3.92;78.49
64298;BME280;50639;53.270;7.956;2023-04-28T01:27:15;101712.25;;;3.93;78.66
64298;BME280;50639;53.270;7.956;2023-04-28T01:29:41;101698.69;;;3.86;78.19
64298;BME280;50639;53.270;7.956;2023-04-28T01:32:06;101702.03;;;3.88;77.96
64298;BME280;50639;53.270;7.956;2023-04-28T01:34:33;101698.22;;;3.81;78.56
64298;BME280;50639;53.270;7.956;2023-04-28T01:37:04;101691.97;;;3.82;78.46
64298;BME280;50639;53.270;7.956;2023-04-28T01:39:30;101690.41;;;3.79;78.30
64298;BME280;50639;53.270;7.956;2023-04-28T01:41:55;101690.56;;;3.78;78.17
64298;BME280;50639;53.270;7.956;2023-04-28T01:44:21;101697.50;;;3.79;78.17
64298;BME280;50639;53.270;7.956;2023-04-28T01:46:47;101685.75;;;3.72;78.02
64298;BME280;50639;53.270;7.956;2023-04-28T01:49:12;101682.25;;;3.71;78.22
64298;BME280;50639;53.270;7.956;2023-04-28T01:51:39;101676.97;;;3.71;78.26
64298;BME280;50639;53.270;7.956;2023-04-28T01:54:06;101670.75;;;3.72;78.66
64298;BME280;50639;53.270;7.956;2023-04-28T01:56:32;101665.22;;;3.75;78.68
64298;BME280;50639;53.270;7.956;2023-04-28T01:58:58;101663.28;;;3.77;78.25
64298;BME280;50639;53.270;7.956;2023-04-28T02:01:24;101664.13;;;3.78;78.67
64298;BME280;50639;53.270;7.956;2023-04-28T02:03:49;101659.66;;;3.78;78.46
64298;BME280;50639;53.270;7.956;2023-04-28T02:06:15;101665.66;;;3.81;78.54
64298;BME280;50639;53.270;7.956;2023-04-28T02:08:41;101666.78;;;3.78;78.29
64298;BME280;50639;53.270;7.956;2023-04-28T02:11:06;101651.16;;;3.75;77.98
64298;BME280;50639;53.270;7.956;2023-04-28T02:13:32;101654.16;;;3.70;78.12
64298;BME280;50639;53.270;7.956;2023-04-28T02:16:00;101648.19;;;3.68;78.25
64298;BME280;50639;53.270;7.956;2023-04-28T02:18:26;101640.50;;;3.65;78.19
64298;BME280;50639;53.270;7.956;2023-04-28T02:20:52;101640.50;;;3.65;78.49
64298;BME280;50639;53.270;7.956;2023-04-28T02:23:17;101636.78;;;3.68;78.49
64298;BME280;50639;53.270;7.956;2023-04-28T02:25:43;101637.63;;;3.68;78.05
64298;BME280;50639;53.270;7.956;2023-04-28T02:28:11;101633.19;;;3.69;78.04
64298;BME280;50639;53.270;7.956;2023-04-28T02:30:37;101620.94;;;3.68;78.04
64298;BME280;50639;53.270;7.956;2023-04-28T02:33:02;101622.97;;;3.64;78.04
64298;BME280;50639;53.270;7.956;2023-04-28T02:35:28;101603.63;;;3.64;77.79
64298;BME280;50639;53.270;7.956;2023-04-28T02:37:53;101606.88;;;3.67;77.81
64298;BME280;50639;53.270;7.956;2023-04-28T02:40:19;101609.53;;;3.67;77.84
64298;BME280;50639;53.270;7.956;2023-04-28T02:42:45;101601.84;;;3.64;77.82
64298;BME280;50639;53.270;7.956;2023-04-28T02:45:11;101597.28;;;3.66;77.81
64298;BME280;50639;53.270;7.956;2023-04-28T02:47:36;101593.56;;;3.69;77.80
64298;BME280;50639;53.270;7.956;2023-04-28T02:50:02;101591.59;;;3.71;78.04
64298;BME280;50639;53.270;7.956;2023-04-28T02:52:28;101589.31;;;3.77;78.06
64298;BME280;50639;53.270;7.956;2023-04-28T02:54:53;101580.53;;;3.77;78.08
64298;BME280;50639;53.270;7.956;2023-04-28T02:57:22;101585.53;;;3.80;78.29
64298;BME280;50639;53.270;7.956;2023-04-28T02:59:48;101573.19;;;3.81;77.79
64298;BME280;50639;53.270;7.956;2023-04-28T03:02:14;101562.38;;;3.84;78.24
64298;BME280;50639;53.270;7.956;2023-04-28T03:04:40;101562.25;;;3.85;77.93
64298;BME280;50639;53.270;7.956;2023-04-28T03:07:05;101564.41;;;3.80;78.29
64298;BME280;50639;53.270;7.956;2023-04-28T03:09:31;101553.34;;;3.86;78.04
64298;BME280;50639;53.270;7.956;2023-04-28T03:11:57;101556.56;;;3.90;77.69
64298;BME280;50639;53.270;7.956;2023-04-28T03:14:23;101549.88;;;3.86;78.18
64298;BME280;50639;53.270;7.956;2023-04-28T03:16:49;101540.69;;;3.90;78.13
64298;BME280;50639;53.270;7.956;2023-04-28T03:19:14;101540.44;;;3.93;78.02
64298;BME280;50639;53.270;7.956;2023-04-28T03:21:40;101530.44;;;3.96;78.16
64298;BME280;50639;53.270;7.956;2023-04-28T03:24:06;101523.09;;;4.00;77.73
64298;BME280;50639;53.270;7.956;2023-04-28T03:26:32;101528.13;;;4.03;77.69
64298;BME280;50639;53.270;7.956;2023-04-28T03:28:58;101524.00;;;4.10;77.75
64298;BME280;50639;53.270;7.956;2023-04-28T03:31:23;101512.56;;;4.09;77.71
64298;BME280;50639;53.270;7.956;2023-04-28T03:33:49;101511.47;;;4.12;77.68
64298;BME280;50639;53.270;7.956;2023-04-28T03:36:16;101503.28;;;4.15;77.48
64298;BME280;50639;53.270;7.956;2023-04-28T03:38:42;101495.91;;;4.19;77.45
64298;BME280;50639;53.270;7.956;2023-04-28T03:41:08;101498.44;;;4.20;76.94
64298;BME280;50639;53.270;7.956;2023-04-28T03:44:11;101487.16;;;4.18;77.68
64298;BME280;50639;53.270;7.956;2023-04-28T03:46:48;101490.22;;;4.23;77.16
64298;BME280;50639;53.270;7.956;2023-04-28T03:49:14;101480.22;;;4.27;77.00
64298;BME280;50639;53.270;7.956;2023-04-28T03:51:40;101470.66;;;4.35;76.80
64298;BME280;50639;53.270;7.956;2023-04-28T03:54:06;101459.94;;;4.37;76.95
64298;BME280;50639;53.270;7.956;2023-04-28T03:56:32;101466.78;;;4.39;76.87
64298;BME280;50639;53.270;7.956;2023-04-28T03:59:00;101461.06;;;4.44;76.58
64298;BME280;50639;53.270;7.956;2023-04-28T04:01:25;101455.53;;;4.47;76.81
64298;BME280;50639;53.270;7.956;2023-04-28T04:03:51;101458.31;;;4.45;76.63
64298;BME280;50639;53.270;7.956;2023-04-28T04:06:17;101460.69;;;4.48;76.22
64298;BME280;50639;53.270;7.956;2023-04-28T04:08:43;101455.09;;;4.51;76.33
64298;BME280;50639;53.270;7.956;2023-04-28T04:11:09;101451.50;;;4.52;76.12
64298;BME280;50639;53.270;7.956;2023-04-28T04:13:35;101460.56;;;4.60;76.09
64298;BME280;50639;53.270;7.956;2023-04-28T04:16:05;101460.03;;;4.66;76.01
64298;BME280;50639;53.270;7.956;2023-04-28T04:18:30;101448.19;;;4.70;76.17
64298;BME280;50639;53.270;7.956;2023-04-28T04:21:28;101446.09;;;4.73;75.99
64298;BME280;50639;53.270;7.956;2023-04-28T04:23:57;101439.56;;;4.77;75.83
64298;BME280;50639;53.270;7.956;2023-04-28T04:26:22;101445.56;;;4.79;74.95
64298;BME280;50639;53.270;7.956;2023-04-28T04:28:50;101448.78;;;4.83;75.08
64298;BME280;50639;53.270;7.956;2023-04-28T04:31:15;101445.56;;;4.89;74.71
64298;BME280;50639;53.270;7.956;2023-04-28T04:33:42;101441.66;;;4.93;74.92
64298;BME280;50639;53.270;7.956;2023-04-28T04:36:08;101441.25;;;5.07;74.32
64298;BME280;50639;53.270;7.956;2023-04-28T04:38:34;101428.84;;;5.08;74.41
64298;BME280;50639;53.270;7.956;2023-04-28T04:41:08;101433.72;;;5.12;74.76
64298;BME280;50639;53.270;7.956;2023-04-28T04:43:36;101423.94;;;5.22;75.04
64298;BME280;50639;53.270;7.956;2023-04-28T04:46:01;101421.72;;;5.27;73.91
64298;BME280;50639;53.270;7.956;2023-04-28T04:48:28;101429.94;;;5.34;73.80
64298;BME280;50639;53.270;7.956;2023-04-28T04:50:56;101421.44;;;5.30;73.73
64298;BME280;50639;53.270;7.956;2023-04-28T04:53:22;101424.50;;;5.36;73.90
64298;BME280;50639;53.270;7.956;2023-04-28T04:55:47;101422.97;;;5.43;73.13
64298;BME280;50639;53.270;7.956;2023-04-28T04:58:14;101421.28;;;5.42;73.00
64298;BME280;50639;53.270;7.956;2023-04-28T05:00:58;101422.09;;;5.52;73.15
64298;BME280;50639;53.270;7.956;2023-04-28T05:03:25;101420.69;;;5.57;73.08
64298;BME280;50639;53.270;7.956;2023-04-28T05:05:50;101417.31;;;5.65;72.20
64298;BME280;50639;53.270;7.956;2023-04-28T05:08:26;101412.44;;;5.70;72.20
64298;BME280;50639;53.270;7.956;2023-04-28T05:10:52;101413.91;;;5.82;71.66
64298;BME280;50639;53.270;7.956;2023-04-28T05:13:18;101417.25;;;5.84;71.34
64298;BME280;50639;53.270;7.956;2023-04-28T05:15:44;101407.78;;;5.91;71.70
64298;BME280;50639;53.270;7.956;2023-04-28T05:18:39;101412.78;;;5.94;71.83
64298;BME280;50639;53.270;7.956;2023-04-28T05:21:04;101406.41;;;5.78;70.77
64298;BME280;50639;53.270;7.956;2023-04-28T05:23:31;101406.63;;;6.03;71.04
64298;BME280;50639;53.270;7.956;2023-04-28T05:25:57;101406.84;;;6.10;71.30
64298;BME280;50639;53.270;7.956;2023-04-28T05:28:23;101401.66;;;6.18;70.39
64298;BME280;50639;53.270;7.956;2023-04-28T05:30:52;101402.88;;;6.24;70.26
64298;BME280;50639;53.270;7.956;2023-04-28T05:33:18;101403.34;;;6.37;69.76
64298;BME280;50639;53.270;7.956;2023-04-28T05:35:45;101408.94;;;6.34;69.83
64298;BME280;50639;53.270;7.956;2023-04-28T05:38:10;101404.97;;;6.48;69.94
64298;BME280;50639;53.270;7.956;2023-04-28T05:40:36;101409.81;;;6.52;69.47
64298;BME280;50639;53.270;7.956;2023-04-28T05:43:02;101407.16;;;6.52;68.55
64298;BME280;50639;53.270;7.956;2023-04-28T05:45:27;101411.19;;;6.56;69.01
64298;BME280;50639;53.270;7.956;2023-04-28T05:47:53;101410.00;;;6.68;68.47
64298;BME280;50639;53.270;7.956;2023-04-28T05:50:19;101407.88;;;6.72;68.34
64298;BME280;50639;53.270;7.956;2023-04-28T05:52:45;101400.97;;;6.79;67.77
64298;BME280;50639;53.270;7.956;2023-04-28T05:55:10;101396.91;;;6.85;68.95
64298;BME280;50639;53.270;7.956;2023-04-28T05:57:36;101388.16;;;6.92;68.46
64298;BME280;50639;53.270;7.956;2023-04-28T06:00:02;101387.09;;;7.03;67.35
64298;BME280;50639;53.270;7.956;2023-04-28T06:02:37;101388.28;;;7.08;67.47
64298;BME280;50639;53.270;7.956;2023-04-28T06:05:03;101388.50;;;7.15;67.47
64298;BME280;50639;53.270;7.956;2023-04-28T06:07:29;101381.97;;;7.27;67.58
64298;BME280;50639;53.270;7.956;2023-04-28T06:09:55;101376.56;;;7.37;66.85
64298;BME280;50639;53.270;7.956;2023-04-28T06:12:20;101371.44;;;7.43;66.45
64298;BME280;50639;53.270;7.956;2023-04-28T06:14:46;101364.34;;;7.52;65.97
64298;BME280;50639;53.270;7.956;2023-04-28T06:17:11;101359.28;;;7.67;65.76
64298;BME280;50639;53.270;7.956;2023-04-28T06:19:37;101364.84;;;7.81;64.92
64298;BME280;50639;53.270;7.956;2023-04-28T06:22:02;101362.72;;;7.93;64.57
64298;BME280;50639;53.270;7.956;2023-04-28T06:24:28;101353.59;;;7.96;63.56
64298;BME280;50639;53.270;7.956;2023-04-28T06:26:55;101361.28;;;8.07;63.04
64298;BME280;50639;53.270;7.956;2023-04-28T06:29:22;101363.44;;;8.03;62.86
64298;BME280;50639;53.270;7.956;2023-04-28T06:31:48;101365.50;;;8.17;63.30
64298;BME280;50639;53.270;7.956;2023-04-28T06:34:14;101354.34;;;8.14;61.67
64298;BME280;50639;53.270;7.956;2023-04-28T06:36:39;101358.59;;;8.33;62.47
64298;BME280;50639;53.270;7.956;2023-04-28T06:39:05;101348.25;;;8.38;62.23
64298;BME280;50639;53.270;7.956;2023-04-28T06:41:32;101351.09;;;8.36;61.30
64298;BME280;50639;53.270;7.956;2023-04-28T06:44:00;101336.31;;;8.50;62.19
64298;BME280;50639;53.270;7.956;2023-04-28T06:46:28;101342.66;;;8.65;61.81
64298;BME280;50639;53.270;7.956;2023-04-28T06:48:54;101352.16;;;8.67;60.75
64298;BME280;50639;53.270;7.956;2023-04-28T06:51:20;101349.16;;;8.79;60.87
64298;BME280;50639;53.270;7.956;2023-04-28T06:53:45;101349.34;;;8.93;60.44
64298;BME280;50639;53.270;7.956;2023-04-28T06:56:11;101352.00;;;9.01;60.15
64298;BME280;50639;53.270;7.956;2023-04-28T06:58:36;101350.84;;;9.04;60.11
64298;BME280;50639;53.270;7.956;2023-04-28T07:01:02;101347.31;;;9.20;60.57
64298;BME280;50639;53.270;7.956;2023-04-28T07:03:28;101333.31;;;9.26;59.71
64298;BME280;50639;53.270;7.956;2023-04-28T07:05:53;101342.78;;;9.36;59.65
64298;BME280;50639;53.270;7.956;2023-04-28T07:08:19;101335.31;;;9.32;59.32
64298;BME280;50639;53.270;7.956;2023-04-28T07:10:44;101338.78;;;9.49;59.26
64298;BME280;50639;53.270;7.956;2023-04-28T07:13:10;101338.88;;;9.71;59.44
64298;BME280;50639;53.270;7.956;2023-04-28T07:15:36;101330.75;;;9.96;57.26
64298;BME280;50639;53.270;7.956;2023-04-28T07:18:01;101323.38;;;10.06;57.69
64298;BME280;50639;53.270;7.956;2023-04-28T07:20:27;101322.00;;;10.18;57.33
64298;BME280;50639;53.270;7.956;2023-04-28T07:22:52;101326.59;;;10.32;56.20
64298;BME280;50639;53.270;7.956;2023-04-28T07:25:18;101322.53;;;10.44;57.15
64298;BME280;50639;53.270;7.956;2023-04-28T07:27:44;101326.66;;;10.47;56.37
64298;BME280;50639;53.270;7.956;2023-04-28T07:30:10;101328.81;;;10.51;55.69
64298;BME280;50639;53.270;7.956;2023-04-28T07:32:36;101323.13;;;10.54;55.24
64298;BME280;50639;53.270;7.956;2023-04-28T07:35:01;101312.38;;;10.63;54.68
64298;BME280;50639;53.270;7.956;2023-04-28T07:37:27;101309.69;;;10.63;54.44
64298;BME280;50639;53.270;7.956;2023-04-28T07:39:53;101316.16;;;10.68;54.29
64298;BME280;50639;53.270;7.956;2023-04-28T07:42:18;101316.75;;;10.78;54.19
64298;BME280;50639;53.270;7.956;2023-04-28T07:44:44;101330.88;;;10.87;53.89
64298;BME280;50639;53.270;7.956;2023-04-28T07:47:10;101322.03;;;10.86;54.45
64298;BME280;50639;53.270;7.956;2023-04-28T07:49:35;101321.53;;;10.83;53.39
64298;BME280;50639;53.270;7.956;2023-04-28T07:52:01;101326.03;;;11.05;53.05
64298;BME280;50639;53.270;7.956;2023-04-28T07:54:26;101320.72;;;11.20;52.44
64298;BME280;50639;53.270;7.956;2023-04-28T07:56:52;101316.59;;;11.32;52.69
64298;BME280;50639;53.270;7.956;2023-04-28T07:59:18;101311.91;;;11.49;53.05
64298;BME280;50639;53.270;7.956;2023-04-28T08:01:43;101309.22;;;11.63;53.21
64298;BME280;50639;53.270;7.956;2023-04-28T08:04:08;101314.59;;;11.78;52.34
64298;BME280;50639;53.270;7.956;2023-04-28T08:06:35;101305.25;;;11.74;52.07
64298;BME280;50639;53.270;7.956;2023-04-28T08:09:02;101302.56;;;11.74;51.08
64298;BME280;50639;53.270;7.956;2023-04-28T08:11:30;101299.25;;;11.72;51.99
64298;BME280;50639;53.270;7.956;2023-04-28T08:13:55;101301.94;;;11.87;51.30
64298;BME280;50639;53.270;7.956;2023-04-28T08:16:26;101301.72;;;11.88;51.38
64298;BME280;50639;53.270;7.956;2023-04-28T08:18:51;101306.72;;;11.91;51.33
64298;BME280;50639;53.270;7.956;2023-04-28T08:21:17;101308.03;;;11.95;51.13
64298;BME280;50639;53.270;7.956;2023-04-28T08:23:42;101300.34;;;11.92;51.35
64298;BME280;50639;53.270;7.956;2023-04-28T08:26:07;101298.94;;;11.96;51.42
64298;BME280;50639;53.270;7.956;2023-04-28T08:28:33;101298.50;;;11.93;51.27
64298;BME280;50639;53.270;7.956;2023-04-28T08:30:59;101305.81;;;11.84;52.10
64298;BME280;50639;53.270;7.956;2023-04-28T08:33:25;101297.50;;;11.94;50.85
64298;BME280;50639;53.270;7.956;2023-04-28T08:35:50;101300.25;;;12.00;51.67
64298;BME280;50639;53.270;7.956;2023-04-28T08:38:16;101298.28;;;12.09;50.68
64298;BME280;50639;53.270;7.956;2023-04-28T08:40:42;101300.84;;;12.17;51.31
64298;BME280;50639;53.270;7.956;2023-04-28T08:43:08;101298.44;;;12.22;51.79
64298;BME280;50639;53.270;7.956;2023-04-28T08:45:41;101293.69;;;12.39;51.28
64298;BME280;50639;53.270;7.956;2023-04-28T08:48:16;101286.28;;;12.62;51.12
64298;BME280;50639;53.270;7.956;2023-04-28T08:50:48;101288.94;;;12.41;50.78
64298;BME280;50639;53.270;7.956;2023-04-28T08:53:20;101289.19;;;12.67;51.43
64298;BME280;50639;53.270;7.956;2023-04-28T08:55:47;101282.91;;;12.75;51.04
64298;BME280;50639;53.270;7.956;2023-04-28T08:58:14;101285.13;;;12.50;50.65
64298;BME280;50639;53.270;7.956;2023-04-28T09:00:39;101287.00;;;12.77;50.74
64298;BME280;50639;53.270;7.956;2023-04-28T09:03:05;101283.84;;;12.95;51.17
64298;BME280;50639;53.270;7.956;2023-04-28T09:05:33;101286.72;;;12.94;50.81
64298;BME280;50639;53.270;7.956;2023-04-28T09:08:01;101283.22;;;12.93;50.48
64298;BME280;50639;53.270;7.956;2023-04-28T09:10:26;101284.88;;;12.94;50.14
64298;BME280;50639;53.270;7.956;2023-04-28T09:12:53;101282.41;;;12.93;50.17
64298;BME280;50639;53.270;7.956;2023-04-28T09:15:31;101273.50;;;13.13;49.67
64298;BME280;50639;53.270;7.956;2023-04-28T09:17:57;101273.38;;;13.28;50.01
64298;BME280;50639;53.270;7.956;2023-04-28T09:20:25;101274.28;;;13.35;51.23
64298;BME280;50639;53.270;7.956;2023-04-28T09:22:54;101266.44;;;13.34;49.17
64298;BME280;50639;53.270;7.956;2023-04-28T09:25:21;101267.50;;;13.46;50.16
64298;BME280;50639;53.270;7.956;2023-04-28T09:27:50;101263.13;;;13.38;49.38
64298;BME280;50639;53.270;7.956;2023-04-28T09:30:15;101263.13;;;13.38;50.01
64298;BME280;50639;53.270;7.956;2023-04-28T09:32:41;101257.38;;;13.41;48.82
64298;BME280;50639;53.270;7.956;2023-04-28T09:35:07;101255.44;;;13.63;49.28
64298;BME280;50639;53.270;7.956;2023-04-28T09:37:33;101260.91;;;13.89;48.66
64298;BME280;50639;53.270;7.956;2023-04-28T09:40:09;101253.91;;;13.95;48.92
64298;BME280;50639;53.270;7.956;2023-04-28T09:42:40;101246.50;;;14.17;48.15
64298;BME280;50639;53.270;7.956;2023-04-28T09:45:06;101238.13;;;14.40;47.95
64298;BME280;50639;53.270;7.956;2023-04-28T09:47:37;101242.91;;;14.51;48.10
64298;BME280;50639;53.270;7.956;2023-04-28T09:50:06;101237.91;;;14.74;47.61
64298;BME280;50639;53.270;7.956;2023-04-28T09:52:33;101242.66;;;14.92;46.84
64298;BME280;50639;53.270;7.956;2023-04-28T09:55:01;101236.88;;;14.82;46.87
64298;BME280;50639;53.270;7.956;2023-04-28T09:57:30;101233.34;;;14.88;46.83
64298;BME280;50639;53.270;7.956;2023-04-28T09:59:57;101228.38;;;14.78;46.38
64298;BME280;50639;53.270;7.956;2023-04-28T10:02:23;101233.38;;;14.68;47.70
64298;BME280;50639;53.270;7.956;2023-04-28T10:04:50;101222.41;;;14.56;47.85
64298;BME280;50639;53.270;7.956;2023-04-28T10:07:20;101219.50;;;14.51;47.22
64298;BME280;50639;53.270;7.956;2023-04-28T10:09:47;101227.16;;;14.61;46.77
64298;BME280;50639;53.270;7.956;2023-04-28T10:12:22;101221.16;;;14.46;47.78
64298;BME280;50639;53.270;7.956;2023-04-28T10:14:49;101209.16;;;14.55;47.34
64298;BME280;50639;53.270;7.956;2023-04-28T10:17:19;101201.31;;;14.66;48.05
64298;BME280;50639;53.270;7.956;2023-04-28T10:19:47;101198.81;;;14.72;48.45
64298;BME280;50639;53.270;7.956;2023-04-28T10:22:26;101205.63;;;14.81;47.52
64298;BME280;50639;53.270;7.956;2023-04-28T10:27:38;101206.47;;;14.61;48.32
64298;BME280;50639;53.270;7.956;2023-04-28T10:30:12;101201.09;;;14.48;48.61
64298;BME280;50639;53.270;7.956;2023-04-28T10:32:38;101200.88;;;14.43;48.66
64298;BME280;50639;53.270;7.956;2023-04-28T10:35:40;101188.84;;;14.13;49.41
64298;BME280;50639;53.270;7.956;2023-04-28T10:38:13;101190.13;;;14.23;50.57
64298;BME280;50639;53.270;7.956;2023-04-28T10:40:43;101183.91;;;14.23;50.28
64298;BME280;50639;53.270;7.956;2023-04-28T10:43:13;101185.34;;;14.06;49.37
64298;BME280;50639;53.270;7.956;2023-04-28T10:56:13;101176.19;;;13.87;51.48
64298;BME280;50639;53.270;7.956;2023-04-28T11:01:33;101167.38;;;14.06;50.96
64298;BME280;50639;53.270;7.956;2023-04-28T11:04:04;101169.22;;;14.12;51.21
64298;BME280;50639;53.270;7.956;2023-04-28T11:07:09;101159.72;;;14.23;50.71
64298;BME280;50639;53.270;7.956;2023-04-28T11:12:04;101154.97;;;14.31;50.16
64298;BME280;50639;53.270;7.956;2023-04-28T11:14:32;101145.72;;;14.41;50.70
64298;BME280;50639;53.270;7.956;2023-04-28T11:17:05;101143.81;;;14.61;51.37
64298;BME280;50639;53.270;7.956;2023-04-28T11:19:32;101147.34;;;14.68;51.39
64298;BME280;50639;53.270;7.956;2023-04-28T11:22:00;101144.81;;;14.80;51.96
64298;BME280;50639;53.270;7.956;2023-04-28T11:24:28;101145.88;;;14.72;50.60
64298;BME280;50639;53.270;7.956;2023-04-28T11:26:54;101140.44;;;14.92;49.53
64298;BME280;50639;53.270;7.956;2023-04-28T11:29:36;101145.81;;;14.98;49.95
64298;BME280;50639;53.270;7.956;2023-04-28T11:32:06;101149.47;;;15.17;50.69
64298;BME280;50639;53.270;7.956;2023-04-28T11:34:32;101149.94;;;15.01;48.94
64298;BME280;50639;53.270;7.956;2023-04-28T11:36:58;101149.56;;;14.84;50.62
64298;BME280;50639;53.270;7.956;2023-04-28T11:39:26;101146.06;;;14.84;50.99
64298;BME280;50639;53.270;7.956;2023-04-28T11:41:55;101143.69;;;15.14;50.58
64298;BME280;50639;53.270;7.956;2023-04-28T11:44:23;101143.59;;;14.69;50.47
64298;BME280;50639;53.270;7.956;2023-04-28T11:46:51;101147.50;;;14.86;50.37
64298;BME280;50639;53.270;7.956;2023-04-28T11:49:28;101146.63;;;14.99;50.41
64298;BME280;50639;53.270;7.956;2023-04-28T11:52:04;101146.22;;;14.95;50.26
64298;BME280;50639;53.270;7.956;2023-04-28T11:54:30;101137.72;;;14.98;49.94
64298;BME280;50639;53.270;7.956;2023-04-28T11:57:02;101137.97;;;14.90;50.13
64298;BME280;50639;53.270;7.956;2023-04-28T11:59:34;101125.91;;;15.06;50.93
64298;BME280;50639;53.270;7.956;2023-04-28T12:02:04;101123.81;;;15.15;50.98
64298;BME280;50639;53.270;7.956;2023-04-28T12:04:34;101115.81;;;15.39;50.63
64298;BME280;50639;53.270;7.956;2023-04-28T12:07:10;101120.31;;;15.59;49.78
64298;BME280;50639;53.270;7.956;2023-04-28T12:09:38;101111.44;;;15.52;50.21
64298;BME280;50639;53.270;7.956;2023-04-28T12:12:05;101118.50;;;15.46;49.59
64298;BME280;50639;53.270;7.956;2023-04-28T12:17:29;101114.25;;;15.25;50.35
64298;BME280;50639;53.270;7.956;2023-04-28T12:19:57;101112.56;;;15.31;50.90
64298;BME280;50639;53.270;7.956;2023-04-28T12:22:23;101107.59;;;15.34;50.23
64298;BME280;50639;53.270;7.956;2023-04-28T12:25:06;101108.91;;;15.19;51.06
64298;BME280;50639;53.270;7.956;2023-04-28T12:27:34;101106.13;;;15.38;50.47
64298;BME280;50639;53.270;7.956;2023-04-28T12:30:00;101106.28;;;15.43;50.41
64298;BME280;50639;53.270;7.956;2023-04-28T12:32:40;101105.44;;;15.50;49.82
64298;BME280;50639;53.270;7.956;2023-04-28T12:35:08;101105.47;;;15.43;50.57
64298;BME280;50639;53.270;7.956;2023-04-28T12:37:36;101111.88;;;15.55;50.50
64298;BME280;50639;53.270;7.956;2023-04-28T12:40:09;101110.81;;;15.50;51.06
64298;BME280;50639;53.270;7.956;2023-04-28T12:42:35;101104.25;;;15.39;51.24
64298;BME280;50639;53.270;7.956;2023-04-28T12:45:08;101102.41;;;15.33;51.51
64298;BME280;50639;53.270;7.956;2023-04-28T12:47:35;101103.53;;;15.19;52.13
64298;BME280;50639;53.270;7.956;2023-04-28T12:50:00;101098.78;;;15.07;52.39
64298;BME280;50639;53.270;7.956;2023-04-28T12:52:26;101101.31;;;15.02;53.67
64298;BME280;50639;53.270;7.956;2023-04-28T12:54:51;101103.00;;;14.90;55.07
64298;BME280;50639;53.270;7.956;2023-04-28T12:57:18;101106.19;;;14.48;58.13
64298;BME280;50639;53.270;7.956;2023-04-28T12:59:47;101113.44;;;14.41;57.31
64298;BME280;50639;53.270;7.956;2023-04-28T13:02:14;101109.72;;;14.42;57.21
64298;BME280;50639;53.270;7.956;2023-04-28T13:04:40;101107.25;;;14.40;57.15
64298;BME280;50639;53.270;7.956;2023-04-28T13:07:11;101097.50;;;14.32;57.77
64298;BME280;50639;53.270;7.956;2023-04-28T13:09:43;101094.81;;;14.26;59.63
64298;BME280;50639;53.270;7.956;2023-04-28T13:12:08;101081.19;;;14.21;59.91
64298;BME280;50639;53.270;7.956;2023-04-28T13:14:36;101069.78;;;14.25;61.17
64298;BME280;50639;53.270;7.956;2023-04-28T13:17:02;101074.34;;;14.31;61.94
64298;BME280;50639;53.270;7.956;2023-04-28T13:19:28;101072.28;;;14.47;62.25